sensor_id;sensor_type;location;lat;lon;timestamp;P1;durP1;ratioP1;P2;durP2;ratioP2
40867;SDS011;26586;50.708;22.412;2023-02-14T00:00:19;8.10;;;3.67;;
40867;SDS011;26586;50.708;22.412;2023-02-14T00:03:06;6.70;;;3.72;;
40867;SDS011;26586;50.708;22.412;2023-02-14T00:05:32;6.47;;;3.70;;
40867;SDS011;26586;50.708;22.412;2023-02-14T00:07:59;7.72;;;3.80;;
40867;SDS011;26586;50.708;22.412;2023-02-14T00:10:25;6.63;;;3.75;;
40867;SDS011;26586;50.708;22.412;2023-02-14T00:12:51;8.85;;;3.80;;
40867;SDS011;26586;50.708;22.412;2023-02-14T00:15:17;11.50;;;5.00;;
40867;SDS011;26586;50.708;22.412;2023-02-14T00:17:50;4.85;;;3.20;;
40867;SDS011;26586;50.708;22.412;2023-02-14T00:20:19;8.38;;;4.47;;
40867;SDS011;26586;50.708;22.412;2023-02-14T00:22:49;7.22;;;4.20;;
40867;SDS011;26586;50.708;22.412;2023-02-14T00:25:15;7.38;;;3.30;;
40867;SDS011;26586;50.708;22.412;2023-02-14T00:27:42;7.53;;;3.45;;
40867;SDS011;26586;50.708;22.412;2023-02-14T00:30:09;5.10;;;3.07;;
40867;SDS011;26586;50.708;22.412;2023-02-14T00:32:37;5.88;;;3.20;;
40867;SDS011;26586;50.708;22.412;2023-02-14T00:35:05;5.60;;;3.50;;
40867;SDS011;26586;50.708;22.412;2023-02-14T00:37:32;7.78;;;4.20;;
40867;SDS011;26586;50.708;22.412;2023-02-14T00:39:58;6.90;;;3.83;;
40867;SDS011;26586;50.708;22.412;2023-02-14T00:42:24;7.38;;;4.13;;
40867;SDS011;26586;50.708;22.412;2023-02-14T00:44:51;7.30;;;3.80;;
40867;SDS011;26586;50.708;22.412;2023-02-14T00:47:18;8.98;;;3.63;;
40867;SDS011;26586;50.708;22.412;2023-02-14T00:49:44;6.50;;;3.95;;
40867;SDS011;26586;50.708;22.412;2023-02-14T00:52:10;6.72;;;3.40;;
40867;SDS011;26586;50.708;22.412;2023-02-14T00:54:36;5.38;;;3.80;;
40867;SDS011;26586;50.708;22.412;2023-02-14T00:57:02;9.38;;;3.80;;
40867;SDS011;26586;50.708;22.412;2023-02-14T00:59:29;5.83;;;3.37;;
40867;SDS011;26586;50.708;22.412;2023-02-14T01:01:55;6.57;;;3.80;;
40867;SDS011;26586;50.708;22.412;2023-02-14T01:04:21;5.97;;;3.23;;
40867;SDS011;26586;50.708;22.412;2023-02-14T01:06:47;5.63;;;3.63;;
40867;SDS011;26586;50.708;22.412;2023-02-14T01:09:14;7.57;;;4.03;;
40867;SDS011;26586;50.708;22.412;2023-02-14T01:11:40;4.93;;;3.17;;
40867;SDS011;26586;50.708;22.412;2023-02-14T01:14:06;5.13;;;3.40;;
40867;SDS011;26586;50.708;22.412;2023-02-14T01:16:32;5.53;;;3.30;;
40867;SDS011;26586;50.708;22.412;2023-02-14T01:18:59;4.90;;;3.30;;
40867;SDS011;26586;50.708;22.412;2023-02-14T01:21:26;6.60;;;3.50;;
40867;SDS011;26586;50.708;22.412;2023-02-14T01:23:56;6.40;;;3.90;;
40867;SDS011;26586;50.708;22.412;2023-02-14T01:26:24;5.25;;;3.20;;
40867;SDS011;26586;50.708;22.412;2023-02-14T01:28:54;8.52;;;3.63;;
40867;SDS011;26586;50.708;22.412;2023-02-14T01:33:50;4.95;;;2.88;;
40867;SDS011;26586;50.708;22.412;2023-02-14T01:38:50;6.13;;;3.33;;
40867;SDS011;26586;50.708;22.412;2023-02-14T01:41:20;6.75;;;3.58;;
40867;SDS011;26586;50.708;22.412;2023-02-14T01:46:24;9.05;;;3.83;;
40867;SDS011;26586;50.708;22.412;2023-02-14T01:48:57;13.65;;;4.50;;
40867;SDS011;26586;50.708;22.412;2023-02-14T01:54:30;7.05;;;3.38;;
40867;SDS011;26586;50.708;22.412;2023-02-14T01:57:01;7.43;;;3.45;;
40867;SDS011;26586;50.708;22.412;2023-02-14T01:59:33;6.45;;;3.17;;
40867;SDS011;26586;50.708;22.412;2023-02-14T02:02:03;6.68;;;3.35;;
40867;SDS011;26586;50.708;22.412;2023-02-14T02:04:31;8.88;;;3.63;;
40867;SDS011;26586;50.708;22.412;2023-02-14T02:07:03;6.70;;;3.20;;
40867;SDS011;26586;50.708;22.412;2023-02-14T02:09:34;6.22;;;3.03;;
40867;SDS011;26586;50.708;22.412;2023-02-14T02:12:21;7.95;;;3.75;;
40867;SDS011;26586;50.708;22.412;2023-02-14T02:14:48;6.30;;;3.93;;
40867;SDS011;26586;50.708;22.412;2023-02-14T02:36:38;5.28;;;3.22;;
40867;SDS011;26586;50.708;22.412;2023-02-14T02:39:18;7.72;;;3.20;;
40867;SDS011;26586;50.708;22.412;2023-02-14T02:47:47;5.35;;;3.25;;
40867;SDS011;26586;50.708;22.412;2023-02-14T02:58:44;6.03;;;3.20;;
40867;SDS011;26586;50.708;22.412;2023-02-14T03:01:16;7.45;;;2.78;;
40867;SDS011;26586;50.708;22.412;2023-02-14T03:04:00;4.57;;;2.78;;
40867;SDS011;26586;50.708;22.412;2023-02-14T03:06:48;8.43;;;3.38;;
40867;SDS011;26586;50.708;22.412;2023-02-14T03:11:47;7.93;;;3.50;;
40867;SDS011;26586;50.708;22.412;2023-02-14T03:14:25;7.43;;;2.63;;
40867;SDS011;26586;50.708;22.412;2023-02-14T03:17:17;6.07;;;3.72;;
40867;SDS011;26586;50.708;22.412;2023-02-14T03:22:55;7.78;;;5.45;;
40867;SDS011;26586;50.708;22.412;2023-02-14T03:25:40;6.43;;;3.33;;
40867;SDS011;26586;50.708;22.412;2023-02-14T03:33:31;23.33;;;15.88;;
40867;SDS011;26586;50.708;22.412;2023-02-14T03:36:06;9.27;;;6.15;;
40867;SDS011;26586;50.708;22.412;2023-02-14T03:38:47;8.93;;;4.70;;
40867;SDS011;26586;50.708;22.412;2023-02-14T03:41:22;9.63;;;5.38;;
40867;SDS011;26586;50.708;22.412;2023-02-14T03:43:56;12.88;;;5.97;;
40867;SDS011;26586;50.708;22.412;2023-02-14T03:46:29;12.38;;;5.90;;
40867;SDS011;26586;50.708;22.412;2023-02-14T03:49:10;10.35;;;4.93;;
40867;SDS011;26586;50.708;22.412;2023-02-14T03:51:40;8.98;;;4.95;;
40867;SDS011;26586;50.708;22.412;2023-02-14T03:54:11;5.80;;;3.55;;
40867;SDS011;26586;50.708;22.412;2023-02-14T03:59:25;6.95;;;3.85;;
40867;SDS011;26586;50.708;22.412;2023-02-14T04:04:32;6.18;;;3.10;;
40867;SDS011;26586;50.708;22.412;2023-02-14T04:07:08;5.57;;;3.35;;
40867;SDS011;26586;50.708;22.412;2023-02-14T04:09:35;8.65;;;3.70;;
40867;SDS011;26586;50.708;22.412;2023-02-14T04:12:02;5.65;;;3.30;;
40867;SDS011;26586;50.708;22.412;2023-02-14T04:14:28;6.82;;;3.17;;
40867;SDS011;26586;50.708;22.412;2023-02-14T04:16:55;5.68;;;3.20;;
40867;SDS011;26586;50.708;22.412;2023-02-14T04:19:39;5.88;;;3.30;;
40867;SDS011;26586;50.708;22.412;2023-02-14T04:22:05;5.60;;;3.28;;
40867;SDS011;26586;50.708;22.412;2023-02-14T04:24:31;5.35;;;2.78;;
40867;SDS011;26586;50.708;22.412;2023-02-14T04:26:58;6.03;;;2.83;;
40867;SDS011;26586;50.708;22.412;2023-02-14T04:32:11;4.50;;;2.55;;
40867;SDS011;26586;50.708;22.412;2023-02-14T04:34:41;7.10;;;2.97;;
40867;SDS011;26586;50.708;22.412;2023-02-14T04:37:08;5.28;;;2.92;;
40867;SDS011;26586;50.708;22.412;2023-02-14T04:39:34;6.38;;;3.30;;
40867;SDS011;26586;50.708;22.412;2023-02-14T04:42:02;5.07;;;2.88;;
40867;SDS011;26586;50.708;22.412;2023-02-14T04:44:28;6.07;;;3.55;;
40867;SDS011;26586;50.708;22.412;2023-02-14T04:46:55;5.30;;;2.97;;
40867;SDS011;26586;50.708;22.412;2023-02-14T04:49:21;3.92;;;2.63;;
40867;SDS011;26586;50.708;22.412;2023-02-14T04:51:47;6.85;;;3.63;;
40867;SDS011;26586;50.708;22.412;2023-02-14T04:54:13;4.68;;;2.85;;
40867;SDS011;26586;50.708;22.412;2023-02-14T04:56:40;5.80;;;2.93;;
40867;SDS011;26586;50.708;22.412;2023-02-14T04:59:06;5.78;;;3.78;;
40867;SDS011;26586;50.708;22.412;2023-02-14T05:01:32;7.13;;;3.87;;
40867;SDS011;26586;50.708;22.412;2023-02-14T05:03:59;7.00;;;3.70;;
40867;SDS011;26586;50.708;22.412;2023-02-14T05:06:25;5.03;;;2.70;;
40867;SDS011;26586;50.708;22.412;2023-02-14T05:08:53;6.00;;;3.10;;
40867;SDS011;26586;50.708;22.412;2023-02-14T05:11:21;6.55;;;4.22;;
40867;SDS011;26586;50.708;22.412;2023-02-14T05:13:47;4.70;;;3.35;;
40867;SDS011;26586;50.708;22.412;2023-02-14T05:16:13;6.70;;;3.63;;
40867;SDS011;26586;50.708;22.412;2023-02-14T05:18:39;4.75;;;3.58;;
40867;SDS011;26586;50.708;22.412;2023-02-14T05:21:06;5.07;;;3.17;;
40867;SDS011;26586;50.708;22.412;2023-02-14T05:23:32;5.80;;;3.53;;
40867;SDS011;26586;50.708;22.412;2023-02-14T05:25:58;4.13;;;3.10;;
40867;SDS011;26586;50.708;22.412;2023-02-14T05:28:24;4.03;;;3.15;;
40867;SDS011;26586;50.708;22.412;2023-02-14T05:30:51;5.23;;;3.53;;
40867;SDS011;26586;50.708;22.412;2023-02-14T05:33:17;6.13;;;4.05;;
40867;SDS011;26586;50.708;22.412;2023-02-14T05:35:43;5.77;;;2.90;;
40867;SDS011;26586;50.708;22.412;2023-02-14T05:38:09;4.95;;;3.10;;
40867;SDS011;26586;50.708;22.412;2023-02-14T05:40:37;4.40;;;3.05;;
40867;SDS011;26586;50.708;22.412;2023-02-14T05:43:04;5.63;;;3.40;;
40867;SDS011;26586;50.708;22.412;2023-02-14T05:45:30;4.07;;;2.80;;
40867;SDS011;26586;50.708;22.412;2023-02-14T05:47:56;5.55;;;4.60;;
40867;SDS011;26586;50.708;22.412;2023-02-14T05:50:22;7.50;;;3.67;;
40867;SDS011;26586;50.708;22.412;2023-02-14T05:52:48;4.72;;;2.95;;
40867;SDS011;26586;50.708;22.412;2023-02-14T05:55:15;3.87;;;2.57;;
40867;SDS011;26586;50.708;22.412;2023-02-14T05:57:41;6.15;;;2.85;;
40867;SDS011;26586;50.708;22.412;2023-02-14T06:00:08;4.57;;;2.60;;
40867;SDS011;26586;50.708;22.412;2023-02-14T06:02:34;7.47;;;4.65;;
40867;SDS011;26586;50.708;22.412;2023-02-14T06:05:01;6.07;;;3.03;;
40867;SDS011;26586;50.708;22.412;2023-02-14T06:07:27;6.15;;;4.85;;
40867;SDS011;26586;50.708;22.412;2023-02-14T06:09:53;8.20;;;6.47;;
40867;SDS011;26586;50.708;22.412;2023-02-14T06:12:19;5.20;;;3.40;;
40867;SDS011;26586;50.708;22.412;2023-02-14T06:14:46;5.18;;;4.30;;
40867;SDS011;26586;50.708;22.412;2023-02-14T06:17:12;5.68;;;3.38;;
40867;SDS011;26586;50.708;22.412;2023-02-14T06:19:38;5.33;;;2.93;;
40867;SDS011;26586;50.708;22.412;2023-02-14T06:22:04;12.05;;;5.38;;
40867;SDS011;26586;50.708;22.412;2023-02-14T06:24:31;12.70;;;7.60;;
40867;SDS011;26586;50.708;22.412;2023-02-14T06:26:57;12.45;;;7.75;;
40867;SDS011;26586;50.708;22.412;2023-02-14T06:29:24;7.97;;;5.20;;
40867;SDS011;26586;50.708;22.412;2023-02-14T06:31:50;14.20;;;10.73;;
40867;SDS011;26586;50.708;22.412;2023-02-14T06:34:17;6.05;;;4.05;;
40867;SDS011;26586;50.708;22.412;2023-02-14T06:36:43;6.50;;;3.20;;
40867;SDS011;26586;50.708;22.412;2023-02-14T06:39:09;8.00;;;4.17;;
40867;SDS011;26586;50.708;22.412;2023-02-14T06:41:35;6.15;;;3.72;;
40867;SDS011;26586;50.708;22.412;2023-02-14T06:44:02;4.90;;;3.07;;
40867;SDS011;26586;50.708;22.412;2023-02-14T06:46:28;6.57;;;3.05;;
40867;SDS011;26586;50.708;22.412;2023-02-14T06:48:55;4.38;;;2.97;;
40867;SDS011;26586;50.708;22.412;2023-02-14T06:51:21;6.80;;;3.95;;
40867;SDS011;26586;50.708;22.412;2023-02-14T06:53:47;6.63;;;3.67;;
40867;SDS011;26586;50.708;22.412;2023-02-14T06:56:13;12.27;;;5.10;;
40867;SDS011;26586;50.708;22.412;2023-02-14T06:58:39;6.00;;;3.80;;
40867;SDS011;26586;50.708;22.412;2023-02-14T07:01:05;6.32;;;3.60;;
40867;SDS011;26586;50.708;22.412;2023-02-14T07:03:32;8.83;;;5.10;;
40867;SDS011;26586;50.708;22.412;2023-02-14T07:05:58;7.35;;;4.70;;
40867;SDS011;26586;50.708;22.412;2023-02-14T07:08:25;5.82;;;4.00;;
40867;SDS011;26586;50.708;22.412;2023-02-14T07:10:54;9.88;;;5.95;;
40867;SDS011;26586;50.708;22.412;2023-02-14T07:13:21;12.57;;;8.02;;
40867;SDS011;26586;50.708;22.412;2023-02-14T07:15:48;5.03;;;3.40;;
40867;SDS011;26586;50.708;22.412;2023-02-14T07:18:14;10.77;;;4.30;;
40867;SDS011;26586;50.708;22.412;2023-02-14T07:20:40;10.65;;;5.00;;
40867;SDS011;26586;50.708;22.412;2023-02-14T07:23:07;5.95;;;4.25;;
40867;SDS011;26586;50.708;22.412;2023-02-14T07:25:33;6.63;;;5.03;;
40867;SDS011;26586;50.708;22.412;2023-02-14T07:27:59;7.15;;;3.50;;
40867;SDS011;26586;50.708;22.412;2023-02-14T07:30:26;7.05;;;3.63;;
40867;SDS011;26586;50.708;22.412;2023-02-14T07:32:53;4.35;;;3.17;;
40867;SDS011;26586;50.708;22.412;2023-02-14T07:35:19;5.63;;;3.90;;
40867;SDS011;26586;50.708;22.412;2023-02-14T07:37:45;9.60;;;4.45;;
40867;SDS011;26586;50.708;22.412;2023-02-14T07:40:13;7.88;;;5.78;;
40867;SDS011;26586;50.708;22.412;2023-02-14T07:42:40;13.20;;;6.93;;
40867;SDS011;26586;50.708;22.412;2023-02-14T07:45:06;17.70;;;9.07;;
40867;SDS011;26586;50.708;22.412;2023-02-14T07:47:33;16.88;;;8.02;;
40867;SDS011;26586;50.708;22.412;2023-02-14T07:49:59;13.35;;;7.10;;
40867;SDS011;26586;50.708;22.412;2023-02-14T07:52:26;9.80;;;5.50;;
40867;SDS011;26586;50.708;22.412;2023-02-14T07:54:52;9.18;;;5.05;;
40867;SDS011;26586;50.708;22.412;2023-02-14T07:57:18;9.57;;;4.50;;
40867;SDS011;26586;50.708;22.412;2023-02-14T07:59:44;6.78;;;4.10;;
40867;SDS011;26586;50.708;22.412;2023-02-14T08:02:11;9.60;;;4.67;;
40867;SDS011;26586;50.708;22.412;2023-02-14T08:04:37;7.25;;;4.43;;
40867;SDS011;26586;50.708;22.412;2023-02-14T08:07:03;7.95;;;4.28;;
40867;SDS011;26586;50.708;22.412;2023-02-14T08:09:29;10.52;;;4.68;;
40867;SDS011;26586;50.708;22.412;2023-02-14T08:11:56;6.15;;;4.65;;
40867;SDS011;26586;50.708;22.412;2023-02-14T08:14:41;8.20;;;5.25;;
40867;SDS011;26586;50.708;22.412;2023-02-14T08:17:08;9.75;;;4.20;;
40867;SDS011;26586;50.708;22.412;2023-02-14T08:19:37;6.78;;;4.28;;
40867;SDS011;26586;50.708;22.412;2023-02-14T08:22:04;6.72;;;4.50;;
40867;SDS011;26586;50.708;22.412;2023-02-14T08:24:31;8.07;;;4.72;;
40867;SDS011;26586;50.708;22.412;2023-02-14T08:26:57;12.15;;;5.95;;
40867;SDS011;26586;50.708;22.412;2023-02-14T08:29:24;7.47;;;4.97;;
40867;SDS011;26586;50.708;22.412;2023-02-14T08:31:50;6.43;;;4.07;;
40867;SDS011;26586;50.708;22.412;2023-02-14T08:34:17;7.35;;;4.03;;
40867;SDS011;26586;50.708;22.412;2023-02-14T08:36:43;8.57;;;5.05;;
40867;SDS011;26586;50.708;22.412;2023-02-14T08:39:10;7.18;;;4.40;;
40867;SDS011;26586;50.708;22.412;2023-02-14T08:41:36;7.88;;;4.80;;
40867;SDS011;26586;50.708;22.412;2023-02-14T08:44:02;8.43;;;5.07;;
40867;SDS011;26586;50.708;22.412;2023-02-14T08:46:29;15.25;;;7.50;;
40867;SDS011;26586;50.708;22.412;2023-02-14T08:48:55;11.20;;;6.07;;
40867;SDS011;26586;50.708;22.412;2023-02-14T08:51:21;9.90;;;5.00;;
40867;SDS011;26586;50.708;22.412;2023-02-14T08:53:50;7.00;;;3.92;;
40867;SDS011;26586;50.708;22.412;2023-02-14T08:56:17;8.63;;;4.00;;
40867;SDS011;26586;50.708;22.412;2023-02-14T08:58:45;7.75;;;4.25;;
40867;SDS011;26586;50.708;22.412;2023-02-14T09:01:15;8.70;;;4.93;;
40867;SDS011;26586;50.708;22.412;2023-02-14T09:03:42;8.15;;;4.57;;
40867;SDS011;26586;50.708;22.412;2023-02-14T09:06:10;7.60;;;4.82;;
40867;SDS011;26586;50.708;22.412;2023-02-14T09:08:39;7.57;;;4.30;;
40867;SDS011;26586;50.708;22.412;2023-02-14T09:11:07;5.72;;;4.10;;
40867;SDS011;26586;50.708;22.412;2023-02-14T09:13:33;8.23;;;4.18;;
40867;SDS011;26586;50.708;22.412;2023-02-14T09:16:06;6.10;;;4.60;;
40867;SDS011;26586;50.708;22.412;2023-02-14T09:18:34;7.07;;;4.53;;
40867;SDS011;26586;50.708;22.412;2023-02-14T09:21:00;7.80;;;4.63;;
40867;SDS011;26586;50.708;22.412;2023-02-14T09:23:27;9.32;;;5.20;;
40867;SDS011;26586;50.708;22.412;2023-02-14T09:26:00;9.70;;;5.45;;
40867;SDS011;26586;50.708;22.412;2023-02-14T09:28:27;6.68;;;4.32;;
40867;SDS011;26586;50.708;22.412;2023-02-14T09:30:53;7.35;;;5.15;;
40867;SDS011;26586;50.708;22.412;2023-02-14T09:33:20;6.28;;;4.03;;
40867;SDS011;26586;50.708;22.412;2023-02-14T09:35:47;6.57;;;4.22;;
40867;SDS011;26586;50.708;22.412;2023-02-14T09:38:31;11.43;;;7.57;;
40867;SDS011;26586;50.708;22.412;2023-02-14T09:40:58;8.33;;;5.77;;
40867;SDS011;26586;50.708;22.412;2023-02-14T09:43:29;9.55;;;6.22;;
40867;SDS011;26586;50.708;22.412;2023-02-14T09:46:12;6.75;;;4.70;;
40867;SDS011;26586;50.708;22.412;2023-02-14T09:48:41;6.28;;;4.43;;
40867;SDS011;26586;50.708;22.412;2023-02-14T09:51:13;7.72;;;4.18;;
40867;SDS011;26586;50.708;22.412;2023-02-14T09:53:46;10.10;;;5.45;;
40867;SDS011;26586;50.708;22.412;2023-02-14T09:58:48;11.50;;;6.15;;
40867;SDS011;26586;50.708;22.412;2023-02-14T10:01:21;9.77;;;4.85;;
40867;SDS011;26586;50.708;22.412;2023-02-14T10:04:08;9.63;;;5.03;;
40867;SDS011;26586;50.708;22.412;2023-02-14T10:10:15;9.20;;;4.22;;
40867;SDS011;26586;50.708;22.412;2023-02-14T10:12:58;7.60;;;3.85;;
40867;SDS011;26586;50.708;22.412;2023-02-14T10:15:42;5.60;;;4.03;;
40867;SDS011;26586;50.708;22.412;2023-02-14T10:18:24;9.68;;;4.53;;
40867;SDS011;26586;50.708;22.412;2023-02-14T10:20:59;6.47;;;4.15;;
40867;SDS011;26586;50.708;22.412;2023-02-14T10:23:34;5.43;;;3.55;;
40867;SDS011;26586;50.708;22.412;2023-02-14T10:28:34;8.18;;;5.38;;
40867;SDS011;26586;50.708;22.412;2023-02-14T10:33:37;9.38;;;5.15;;
40867;SDS011;26586;50.708;22.412;2023-02-14T10:36:15;8.07;;;4.50;;
40867;SDS011;26586;50.708;22.412;2023-02-14T10:41:51;9.27;;;4.10;;
40867;SDS011;26586;50.708;22.412;2023-02-14T10:50:10;7.18;;;5.50;;
40867;SDS011;26586;50.708;22.412;2023-02-14T10:53:02;7.13;;;4.00;;
40867;SDS011;26586;50.708;22.412;2023-02-14T10:58:13;7.45;;;5.55;;
40867;SDS011;26586;50.708;22.412;2023-02-14T11:01:02;5.82;;;3.97;;
40867;SDS011;26586;50.708;22.412;2023-02-14T11:03:35;8.30;;;5.70;;
40867;SDS011;26586;50.708;22.412;2023-02-14T11:06:04;8.68;;;4.15;;
40867;SDS011;26586;50.708;22.412;2023-02-14T11:08:33;8.10;;;5.22;;
40867;SDS011;26586;50.708;22.412;2023-02-14T11:11:12;7.82;;;4.82;;
40867;SDS011;26586;50.708;22.412;2023-02-14T11:13:43;8.43;;;4.82;;
40867;SDS011;26586;50.708;22.412;2023-02-14T11:16:11;10.88;;;5.97;;
40867;SDS011;26586;50.708;22.412;2023-02-14T11:18:43;19.05;;;12.18;;
40867;SDS011;26586;50.708;22.412;2023-02-14T11:23:42;14.20;;;10.35;;
40867;SDS011;26586;50.708;22.412;2023-02-14T11:26:22;13.85;;;8.65;;
40867;SDS011;26586;50.708;22.412;2023-02-14T11:31:28;9.18;;;6.03;;
40867;SDS011;26586;50.708;22.412;2023-02-14T11:33:54;8.70;;;5.03;;
40867;SDS011;26586;50.708;22.412;2023-02-14T11:36:22;10.90;;;6.65;;
40867;SDS011;26586;50.708;22.412;2023-02-14T11:39:02;10.10;;;5.73;;
40867;SDS011;26586;50.708;22.412;2023-02-14T11:41:49;11.70;;;6.28;;
40867;SDS011;26586;50.708;22.412;2023-02-14T11:44:18;11.73;;;7.22;;
40867;SDS011;26586;50.708;22.412;2023-02-14T11:46:51;12.25;;;6.68;;
40867;SDS011;26586;50.708;22.412;2023-02-14T11:49:26;11.13;;;6.00;;
40867;SDS011;26586;50.708;22.412;2023-02-14T11:51:56;6.95;;;5.10;;
40867;SDS011;26586;50.708;22.412;2023-02-14T11:56:54;11.68;;;5.93;;
40867;SDS011;26586;50.708;22.412;2023-02-14T11:59:29;9.20;;;6.20;;
40867;SDS011;26586;50.708;22.412;2023-02-14T12:01:57;12.10;;;5.50;;
40867;SDS011;26586;50.708;22.412;2023-02-14T12:04:31;7.72;;;5.15;;
40867;SDS011;26586;50.708;22.412;2023-02-14T12:07:21;9.30;;;5.22;;
40867;SDS011;26586;50.708;22.412;2023-02-14T12:20:41;16.77;;;9.18;;
40867;SDS011;26586;50.708;22.412;2023-02-14T12:23:34;10.35;;;6.78;;
40867;SDS011;26586;50.708;22.412;2023-02-14T12:29:44;12.88;;;10.65;;
40867;SDS011;26586;50.708;22.412;2023-02-14T12:31:45;11.68;;;6.55;;
40867;SDS011;26586;50.708;22.412;2023-02-14T12:34:13;12.35;;;6.18;;
40867;SDS011;26586;50.708;22.412;2023-02-14T12:39:34;7.15;;;5.68;;
40867;SDS011;26586;50.708;22.412;2023-02-14T12:50:37;10.18;;;5.47;;
40867;SDS011;26586;50.708;22.412;2023-02-14T12:58:50;12.50;;;5.65;;
40867;SDS011;26586;50.708;22.412;2023-02-14T13:01:34;8.52;;;5.35;;
40867;SDS011;26586;50.708;22.412;2023-02-14T13:06:33;7.28;;;5.15;;
40867;SDS011;26586;50.708;22.412;2023-02-14T13:22:46;8.25;;;5.90;;
40867;SDS011;26586;50.708;22.412;2023-02-14T13:25:23;11.02;;;6.88;;
40867;SDS011;26586;50.708;22.412;2023-02-14T13:27:58;11.60;;;8.98;;
40867;SDS011;26586;50.708;22.412;2023-02-14T13:30:29;15.85;;;8.75;;
40867;SDS011;26586;50.708;22.412;2023-02-14T13:32:57;9.40;;;6.70;;
40867;SDS011;26586;50.708;22.412;2023-02-14T13:35:32;11.20;;;6.43;;
40867;SDS011;26586;50.708;22.412;2023-02-14T13:38:01;8.82;;;5.72;;
40867;SDS011;26586;50.708;22.412;2023-02-14T13:40:30;8.50;;;4.97;;
40867;SDS011;26586;50.708;22.412;2023-02-14T13:42:59;10.77;;;5.07;;
40867;SDS011;26586;50.708;22.412;2023-02-14T13:48:13;9.43;;;5.80;;
40867;SDS011;26586;50.708;22.412;2023-02-14T13:50:49;10.68;;;6.75;;
40867;SDS011;26586;50.708;22.412;2023-02-14T13:54:04;8.57;;;5.70;;
40867;SDS011;26586;50.708;22.412;2023-02-14T13:58:56;7.57;;;5.28;;
40867;SDS011;26586;50.708;22.412;2023-02-14T14:01:35;8.50;;;5.47;;
40867;SDS011;26586;50.708;22.412;2023-02-14T14:04:49;8.40;;;5.88;;
40867;SDS011;26586;50.708;22.412;2023-02-14T14:20:38;14.05;;;9.63;;
40867;SDS011;26586;50.708;22.412;2023-02-14T14:23:45;10.73;;;7.82;;
40867;SDS011;26586;50.708;22.412;2023-02-14T14:28:55;14.88;;;10.52;;
40867;SDS011;26586;50.708;22.412;2023-02-14T14:31:21;13.23;;;7.95;;
40867;SDS011;26586;50.708;22.412;2023-02-14T14:33:55;16.17;;;9.98;;
40867;SDS011;26586;50.708;22.412;2023-02-14T14:36:24;14.27;;;9.65;;
40867;SDS011;26586;50.708;22.412;2023-02-14T14:38:50;14.35;;;9.80;;
40867;SDS011;26586;50.708;22.412;2023-02-14T14:41:19;13.13;;;8.48;;
40867;SDS011;26586;50.708;22.412;2023-02-14T14:43:56;16.42;;;9.27;;
40867;SDS011;26586;50.708;22.412;2023-02-14T14:46:24;12.90;;;8.68;;
40867;SDS011;26586;50.708;22.412;2023-02-14T14:48:50;26.38;;;14.80;;
40867;SDS011;26586;50.708;22.412;2023-02-14T14:51:25;51.42;;;30.85;;
40867;SDS011;26586;50.708;22.412;2023-02-14T14:56:29;14.70;;;11.10;;
40867;SDS011;26586;50.708;22.412;2023-02-14T14:59:14;13.45;;;10.10;;
40867;SDS011;26586;50.708;22.412;2023-02-14T15:01:41;16.42;;;11.13;;
40867;SDS011;26586;50.708;22.412;2023-02-14T15:04:17;16.58;;;10.90;;
40867;SDS011;26586;50.708;22.412;2023-02-14T15:06:44;16.25;;;12.02;;
40867;SDS011;26586;50.708;22.412;2023-02-14T15:09:15;15.07;;;9.35;;
40867;SDS011;26586;50.708;22.412;2023-02-14T15:11:48;22.52;;;13.95;;
40867;SDS011;26586;50.708;22.412;2023-02-14T15:14:36;20.45;;;12.77;;
40867;SDS011;26586;50.708;22.412;2023-02-14T15:17:15;20.33;;;13.63;;
40867;SDS011;26586;50.708;22.412;2023-02-14T15:19:45;22.05;;;13.63;;
40867;SDS011;26586;50.708;22.412;2023-02-14T15:24:46;22.10;;;16.50;;
40867;SDS011;26586;50.708;22.412;2023-02-14T15:29:40;13.65;;;8.98;;
40867;SDS011;26586;50.708;22.412;2023-02-14T15:32:07;16.92;;;11.45;;
40867;SDS011;26586;50.708;22.412;2023-02-14T15:34:35;24.80;;;17.00;;
40867;SDS011;26586;50.708;22.412;2023-02-14T15:37:02;25.33;;;16.17;;
40867;SDS011;26586;50.708;22.412;2023-02-14T15:39:37;20.70;;;12.88;;
40867;SDS011;26586;50.708;22.412;2023-02-14T15:42:19;19.98;;;11.48;;
40867;SDS011;26586;50.708;22.412;2023-02-14T15:44:49;20.08;;;12.98;;
40867;SDS011;26586;50.708;22.412;2023-02-14T15:47:15;17.08;;;10.27;;
40867;SDS011;26586;50.708;22.412;2023-02-14T15:49:42;16.33;;;10.23;;
40867;SDS011;26586;50.708;22.412;2023-02-14T15:52:11;17.17;;;10.02;;
40867;SDS011;26586;50.708;22.412;2023-02-14T15:54:41;18.92;;;11.18;;
40867;SDS011;26586;50.708;22.412;2023-02-14T15:57:18;20.00;;;12.95;;
40867;SDS011;26586;50.708;22.412;2023-02-14T15:59:50;19.33;;;11.60;;
40867;SDS011;26586;50.708;22.412;2023-02-14T16:02:24;14.70;;;10.27;;
40867;SDS011;26586;50.708;22.412;2023-02-14T16:05:23;17.55;;;10.82;;
40867;SDS011;26586;50.708;22.412;2023-02-14T16:12:55;13.25;;;8.85;;
40867;SDS011;26586;50.708;22.412;2023-02-14T16:15:23;14.65;;;9.88;;
40867;SDS011;26586;50.708;22.412;2023-02-14T16:17:51;15.68;;;12.40;;
40867;SDS011;26586;50.708;22.412;2023-02-14T16:20:18;16.48;;;11.27;;
40867;SDS011;26586;50.708;22.412;2023-02-14T16:22:50;36.65;;;18.88;;
40867;SDS011;26586;50.708;22.412;2023-02-14T16:25:17;55.33;;;30.00;;
40867;SDS011;26586;50.708;22.412;2023-02-14T16:27:44;72.22;;;35.10;;
40867;SDS011;26586;50.708;22.412;2023-02-14T16:30:14;62.28;;;27.85;;
40867;SDS011;26586;50.708;22.412;2023-02-14T16:32:41;46.85;;;21.25;;
40867;SDS011;26586;50.708;22.412;2023-02-14T16:35:15;22.75;;;11.25;;
40867;SDS011;26586;50.708;22.412;2023-02-14T16:37:45;19.77;;;11.27;;
40867;SDS011;26586;50.708;22.412;2023-02-14T16:40:13;27.33;;;14.85;;
40867;SDS011;26586;50.708;22.412;2023-02-14T16:42:40;21.65;;;12.82;;
40867;SDS011;26586;50.708;22.412;2023-02-14T16:45:16;27.30;;;17.30;;
40867;SDS011;26586;50.708;22.412;2023-02-14T16:47:46;34.25;;;19.75;;
40867;SDS011;26586;50.708;22.412;2023-02-14T16:50:14;35.80;;;21.75;;
40867;SDS011;26586;50.708;22.412;2023-02-14T16:52:40;33.35;;;22.50;;
40867;SDS011;26586;50.708;22.412;2023-02-14T16:55:14;35.20;;;24.35;;
40867;SDS011;26586;50.708;22.412;2023-02-14T16:57:42;24.63;;;17.08;;
40867;SDS011;26586;50.708;22.412;2023-02-14T17:00:11;22.98;;;14.90;;
40867;SDS011;26586;50.708;22.412;2023-02-14T17:05:05;27.15;;;15.15;;
40867;SDS011;26586;50.708;22.412;2023-02-14T17:07:31;28.27;;;14.02;;
40867;SDS011;26586;50.708;22.412;2023-02-14T17:10:00;25.73;;;13.05;;
40867;SDS011;26586;50.708;22.412;2023-02-14T17:12:31;22.63;;;12.30;;
40867;SDS011;26586;50.708;22.412;2023-02-14T17:15:04;26.17;;;12.82;;
40867;SDS011;26586;50.708;22.412;2023-02-14T17:17:35;26.15;;;13.63;;
40867;SDS011;26586;50.708;22.412;2023-02-14T17:20:03;32.17;;;16.33;;
40867;SDS011;26586;50.708;22.412;2023-02-14T17:22:33;34.88;;;18.90;;
40867;SDS011;26586;50.708;22.412;2023-02-14T17:25:01;30.77;;;16.55;;
40867;SDS011;26586;50.708;22.412;2023-02-14T17:29:54;28.57;;;14.37;;
40867;SDS011;26586;50.708;22.412;2023-02-14T17:32:20;37.58;;;18.27;;
40867;SDS011;26586;50.708;22.412;2023-02-14T17:34:46;50.50;;;26.58;;
40867;SDS011;26586;50.708;22.412;2023-02-14T17:37:13;31.67;;;18.83;;
40867;SDS011;26586;50.708;22.412;2023-02-14T17:39:39;28.25;;;15.63;;
40867;SDS011;26586;50.708;22.412;2023-02-14T17:42:06;22.60;;;14.13;;
40867;SDS011;26586;50.708;22.412;2023-02-14T17:44:32;21.48;;;14.57;;